createdAt,value
2023-05-02T00:01:14.643Z,8.35
2023-05-02T00:03:42.779Z,7.82
2023-05-02T00:06:09.867Z,7.68
2023-05-02T00:08:36.555Z,6.95
2023-05-02T00:11:03.230Z,7.32
2023-05-02T00:13:30.046Z,9.32
2023-05-02T00:15:56.616Z,8.27
2023-05-02T00:18:24.246Z,7.07
2023-05-02T00:20:50.978Z,8.35
2023-05-02T00:23:17.559Z,8.20
2023-05-02T00:25:45.912Z,6.70
2023-05-02T00:28:13.759Z,7.18
2023-05-02T00:30:46.880Z,6.82
2023-05-02T00:33:15.803Z,6.55
2023-05-02T00:35:42.512Z,8.52
2023-05-02T00:38:09.294Z,6.63
2023-05-02T00:40:52.118Z,6.82
2023-05-02T00:43:19.285Z,7.43
2023-05-02T00:45:48.811Z,6.75
2023-05-02T00:48:17.842Z,8.07
2023-05-02T00:50:44.403Z,7.70
2023-05-02T00:53:11.389Z,7.70
2023-05-02T00:55:38.652Z,6.40
2023-05-02T00:58:11.978Z,7.60
2023-05-02T01:01:00.336Z,7.35
2023-05-02T01:03:51.298Z,6.75
2023-05-02T01:09:00.342Z,8.68
2023-05-02T01:11:51.948Z,7.85
2023-05-02T01:14:21.318Z,7.32
2023-05-02T01:16:50.152Z,7.72
2023-05-02T01:19:32.207Z,9.05
2023-05-02T01:22:01.964Z,7.60
2023-05-02T01:24:53.666Z,8.57
2023-05-02T01:27:54.319Z,6.88
2023-05-02T01:30:21.911Z,6.28
2023-05-02T01:32:51.588Z,7.45
2023-05-02T01:35:20.071Z,8.87
2023-05-02T01:37:48.373Z,8.52
2023-05-02T01:40:19.500Z,7.28
2023-05-02T01:42:52.191Z,7.95
2023-05-02T01:45:21.250Z,8.07
2023-05-02T01:47:48.930Z,6.93
2023-05-02T01:50:20.324Z,8.18
2023-05-02T01:52:49.677Z,7.20
2023-05-02T01:55:17.855Z,9.10
2023-05-02T01:57:46.451Z,9.40
2023-05-02T02:00:16.394Z,7.45
2023-05-02T02:02:46.810Z,7.32
2023-05-02T02:05:16.016Z,8.68
2023-05-02T02:07:43.669Z,10.20
2023-05-02T02:10:10.673Z,8.98
2023-05-02T02:12:42.966Z,7.95
2023-05-02T02:15:21.531Z,8.10
2023-05-02T02:18:05.281Z,7.72
2023-05-02T02:20:32.684Z,6.15
2023-05-02T02:23:02.130Z,7.15
2023-05-02T02:25:29.546Z,6.95
2023-05-02T02:27:57.190Z,6.35
2023-05-02T02:30:23.878Z,6.32
2023-05-02T02:32:50.583Z,8.15
2023-05-02T02:35:17.271Z,7.93
2023-05-02T02:38:03.204Z,6.85
2023-05-02T02:40:34.586Z,7.63
2023-05-02T02:43:04.321Z,6.80
2023-05-02T02:45:57.850Z,5.40
2023-05-02T02:48:34.919Z,7.35
2023-05-02T02:51:01.649Z,7.55
2023-05-02T02:53:52.049Z,7.22
2023-05-02T02:56:40.394Z,6.07
2023-05-02T02:59:15.636Z,7.60
2023-05-02T03:01:46.733Z,8.88
2023-05-02T03:04:16.102Z,8.48
2023-05-02T03:06:43.151Z,8.27
2023-05-02T03:09:19.887Z,9.98
2023-05-02T03:11:48.726Z,8.77
2023-05-02T03:14:15.939Z,8.23
2023-05-02T03:16:42.834Z,6.72
2023-05-02T03:19:14.297Z,8.05
2023-05-02T03:21:41.793Z,7.05
2023-05-02T03:24:17.175Z,8.35
2023-05-02T03:26:46.979Z,6.38
2023-05-02T03:29:14.983Z,11.43
2023-05-02T03:31:42.831Z,7.90
2023-05-02T03:34:09.896Z,6.85
2023-05-02T03:36:38.253Z,6.93
2023-05-02T03:39:05.003Z,8.75
2023-05-02T03:41:31.795Z,7.75
2023-05-02T03:44:04.395Z,6.00
2023-05-02T03:46:31.605Z,7.35
2023-05-02T03:48:58.546Z,7.28
2023-05-02T03:51:26.049Z,8.48
2023-05-02T03:53:55.321Z,5.43
2023-05-02T03:56:21.987Z,6.93
2023-05-02T03:59:00.167Z,7.13
2023-05-02T04:01:27.664Z,6.35
2023-05-02T04:03:56.194Z,5.53
2023-05-02T04:06:25.763Z,5.82
2023-05-02T04:08:58.625Z,6.05
2023-05-02T04:11:28.989Z,7.35
2023-05-02T04:13:55.878Z,6.88
2023-05-02T04:16:22.831Z,6.45
2023-05-02T04:18:51.008Z,6.07
2023-05-02T04:21:18.471Z,5.63
2023-05-02T04:23:45.929Z,5.22
2023-05-02T04:26:12.608Z,8.32
2023-05-02T04:28:46.227Z,7.75
2023-05-02T04:31:15.437Z,6.72
2023-05-02T04:33:43.912Z,7.78
2023-05-02T04:36:11.832Z,7.55
2023-05-02T04:38:42.164Z,5.40
2023-05-02T04:41:09.899Z,6.60
2023-05-02T04:43:42.222Z,5.65
2023-05-02T04:46:09.417Z,6.30
2023-05-02T04:48:42.054Z,5.95
2023-05-02T04:51:09.600Z,7.18
2023-05-02T04:53:36.936Z,4.43
2023-05-02T04:56:04.196Z,9.43
2023-05-02T04:58:35.179Z,6.60
2023-05-02T05:01:04.703Z,6.10
2023-05-02T05:03:33.152Z,5.20
2023-05-02T05:06:00.140Z,6.10
2023-05-02T05:08:27.700Z,5.90
2023-05-02T05:10:54.503Z,5.82
2023-05-02T05:13:22.593Z,5.30
2023-05-02T05:15:49.947Z,6.00
2023-05-02T05:18:18.132Z,4.72
2023-05-02T05:20:44.925Z,6.78
2023-05-02T05:23:12.412Z,5.97
2023-05-02T05:25:40.373Z,8.00
2023-05-02T05:28:07.902Z,7.85
2023-05-02T05:30:36.802Z,5.22
2023-05-02T05:33:06.250Z,6.47
2023-05-02T05:35:32.872Z,5.47
2023-05-02T05:38:01.475Z,5.20
2023-05-02T05:40:30.682Z,5.80
2023-05-02T05:42:58.912Z,5.53
2023-05-02T05:45:32.743Z,6.03
2023-05-02T05:47:59.455Z,6.30
2023-05-02T05:50:28.929Z,5.18
2023-05-02T05:52:55.649Z,5.82
2023-05-02T05:55:22.343Z,5.28
2023-05-02T05:57:49.011Z,5.40
2023-05-02T06:00:16.077Z,4.18
2023-05-02T06:02:43.962Z,5.85
2023-05-02T06:05:17.650Z,6.30
2023-05-02T06:07:44.570Z,5.85
2023-05-02T06:10:11.342Z,7.15
2023-05-02T06:12:40.691Z,4.47
2023-05-02T06:15:08.926Z,5.63
2023-05-02T06:17:36.064Z,5.43
2023-05-02T06:20:02.986Z,5.35
2023-05-02T06:22:29.732Z,5.03
2023-05-02T06:24:56.304Z,4.07
2023-05-02T06:27:22.965Z,3.83
2023-05-02T06:29:53.300Z,4.57
2023-05-02T06:32:20.076Z,4.40
2023-05-02T06:34:46.799Z,5.63
2023-05-02T06:37:13.352Z,5.30
2023-05-02T06:39:40.208Z,5.07
2023-05-02T06:42:06.768Z,4.22
2023-05-02T06:44:34.243Z,6.68
2023-05-02T06:47:00.958Z,4.15
2023-05-02T06:49:27.647Z,4.93
2023-05-02T06:51:54.213Z,5.70
2023-05-02T06:54:21.808Z,5.30
2023-05-02T06:56:48.589Z,5.88
2023-05-02T06:59:16.947Z,5.22
2023-05-02T07:01:44.755Z,5.40
2023-05-02T07:04:11.463Z,4.15
2023-05-02T07:06:38.310Z,3.92
2023-05-02T07:09:04.922Z,4.55
2023-05-02T07:11:31.522Z,5.82
2023-05-02T07:13:58.158Z,5.38
2023-05-02T07:16:25.114Z,4.40
2023-05-02T07:18:51.698Z,5.63
2023-05-02T07:21:19.188Z,3.58
2023-05-02T07:23:45.801Z,3.28
2023-05-02T07:26:12.579Z,3.55
2023-05-02T07:28:39.162Z,3.60
2023-05-02T07:31:06.190Z,2.95
2023-05-02T07:33:32.775Z,6.70
2023-05-02T07:35:59.450Z,4.72
2023-05-02T07:38:27.746Z,3.30
2023-05-02T07:40:58.531Z,2.90
2023-05-02T07:43:25.393Z,3.90
2023-05-02T07:45:52.089Z,3.42
2023-05-02T07:48:18.807Z,4.38
2023-05-02T07:50:45.445Z,3.55
2023-05-02T07:53:12.272Z,3.67
2023-05-02T07:55:38.861Z,3.75
2023-05-02T07:58:06.430Z,3.90
2023-05-02T08:00:33.628Z,4.15
2023-05-02T08:03:00.396Z,4.57
2023-05-02T08:05:27.213Z,4.95
2023-05-02T08:07:53.842Z,3.78
2023-05-02T08:10:20.494Z,4.57
2023-05-02T08:12:47.271Z,6.78
2023-05-02T08:15:13.915Z,3.75
2023-05-02T08:17:40.679Z,4.05
2023-05-02T08:20:08.068Z,6.07
2023-05-02T08:22:34.771Z,4.10
2023-05-02T08:25:01.437Z,4.72
2023-05-02T08:27:28.024Z,4.70
2023-05-02T08:29:54.595Z,6.32
2023-05-02T08:32:22.371Z,4.43
2023-05-02T08:34:48.936Z,3.45
2023-05-02T08:37:15.554Z,3.15
2023-05-02T08:39:42.190Z,3.97
2023-05-02T08:42:08.922Z,4.95
2023-05-02T08:44:35.838Z,4.45
2023-05-02T08:47:03.414Z,6.13
2023-05-02T08:49:32.292Z,4.57
2023-05-02T08:52:02.216Z,5.80
2023-05-02T08:54:29.328Z,5.25
2023-05-02T08:56:57.152Z,4.53
2023-05-02T08:59:23.709Z,3.60
2023-05-02T09:01:55.274Z,3.60
2023-05-02T09:04:27.364Z,4.70
2023-05-02T09:06:53.957Z,7.07
2023-05-02T09:09:20.689Z,4.80
2023-05-02T09:11:47.820Z,2.95
2023-05-02T09:14:16.027Z,5.03
2023-05-02T09:16:43.524Z,4.22
2023-05-02T09:19:10.808Z,4.47
2023-05-02T09:21:37.406Z,5.30
2023-05-02T09:24:17.128Z,3.17
2023-05-02T09:26:56.100Z,4.80
2023-05-02T09:29:22.966Z,3.47
2023-05-02T09:31:55.555Z,3.53
2023-05-02T09:34:23.474Z,4.15
2023-05-02T09:36:54.802Z,3.50
2023-05-02T09:39:32.268Z,3.90
2023-05-02T09:41:59.909Z,4.03
2023-05-02T09:44:36.130Z,6.13
2023-05-02T09:47:02.907Z,4.97
2023-05-02T09:49:46.679Z,5.07
2023-05-02T09:52:15.634Z,4.82
2023-05-02T09:54:42.511Z,5.35
2023-05-02T09:57:10.669Z,5.25
2023-05-02T09:59:38.693Z,6.80
2023-05-02T10:02:07.528Z,5.13
2023-05-02T10:04:34.921Z,4.90
2023-05-02T10:07:03.304Z,6.95
2023-05-02T10:09:33.926Z,5.03
2023-05-02T10:14:36.085Z,5.93
2023-05-02T10:17:09.849Z,5.97
2023-05-02T10:19:50.985Z,6.47
2023-05-02T10:22:19.715Z,5.40
2023-05-02T10:24:49.275Z,5.93
2023-05-02T10:27:16.315Z,6.40
2023-05-02T10:29:42.954Z,10.05
2023-05-02T10:32:11.058Z,7.43
2023-05-02T10:34:40.546Z,5.72
2023-05-02T10:37:07.263Z,6.55
2023-05-02T10:39:34.179Z,7.25
2023-05-02T10:42:03.444Z,8.73
2023-05-02T10:44:38.666Z,7.55
2023-05-02T10:47:32.788Z,4.93
2023-05-02T10:50:01.947Z,7.32
2023-05-02T10:52:38.109Z,8.93
2023-05-02T10:55:21.898Z,8.43
2023-05-02T10:57:58.255Z,7.78
2023-05-02T11:00:35.124Z,7.57
2023-05-02T11:03:02.665Z,7.05
2023-05-02T11:05:29.736Z,6.80
2023-05-02T11:08:15.312Z,7.55
2023-05-02T11:10:42.126Z,8.05
2023-05-02T11:13:08.789Z,6.25
2023-05-02T11:15:41.634Z,8.10
2023-05-02T11:18:12.800Z,6.90
2023-05-02T11:20:42.126Z,6.68
2023-05-02T11:23:26.943Z,6.47
2023-05-02T11:25:54.858Z,6.35
2023-05-02T11:28:45.852Z,7.63
2023-05-02T11:31:56.874Z,7.78
2023-05-02T11:34:23.559Z,6.45
2023-05-02T11:36:50.105Z,5.88
2023-05-02T11:39:21.750Z,7.50
2023-05-02T11:41:50.982Z,7.65
2023-05-02T11:44:18.326Z,8.68
2023-05-02T11:46:45.045Z,7.15
2023-05-02T11:49:14.894Z,6.97
2023-05-02T11:51:42.021Z,7.07
2023-05-02T11:54:10.157Z,6.68
2023-05-02T11:56:36.813Z,5.53
2023-05-02T11:59:04.316Z,5.15
2023-05-02T12:01:31.330Z,5.45
2023-05-02T12:04:07.078Z,4.22
2023-05-02T12:06:34.474Z,4.80
2023-05-02T12:09:09.258Z,5.03
2023-05-02T12:11:38.901Z,7.15
2023-05-02T12:14:06.702Z,8.52
2023-05-02T12:16:33.971Z,6.25
2023-05-02T12:19:01.306Z,6.85
2023-05-02T12:21:33.360Z,6.18
2023-05-02T12:24:02.108Z,6.00
2023-05-02T12:26:33.596Z,7.90
2023-05-02T12:29:02.640Z,7.50
2023-05-02T12:31:31.382Z,5.50
2023-05-02T12:34:00.110Z,5.93
2023-05-02T12:36:31.093Z,5.88
2023-05-02T12:38:59.734Z,5.60
2023-05-02T12:41:38.215Z,5.57
2023-05-02T12:44:06.101Z,6.25
2023-05-02T12:46:32.979Z,5.43
2023-05-02T12:49:02.565Z,6.38
2023-05-02T12:51:31.428Z,6.10
2023-05-02T12:53:57.971Z,6.43
2023-05-02T12:56:27.586Z,4.40
2023-05-02T12:58:54.218Z,5.30
2023-05-02T13:01:21.494Z,5.68
2023-05-02T13:03:51.374Z,5.18
2023-05-02T13:06:18.650Z,6.72
2023-05-02T13:08:45.293Z,5.38
2023-05-02T13:11:13.028Z,4.72
2023-05-02T13:13:39.590Z,7.78
2023-05-02T13:16:08.012Z,6.80
2023-05-02T13:18:34.849Z,4.95
2023-05-02T13:21:01.559Z,4.90
2023-05-02T13:23:28.219Z,4.60
2023-05-02T13:25:55.497Z,4.18
2023-05-02T13:28:22.110Z,5.40
2023-05-02T13:30:48.977Z,5.05
2023-05-02T13:33:15.914Z,5.20
2023-05-02T13:35:42.655Z,6.07
2023-05-02T13:38:09.403Z,7.20
2023-05-02T13:40:36.032Z,6.25
2023-05-02T13:43:02.669Z,6.25
2023-05-02T13:45:29.482Z,6.88
2023-05-02T13:47:56.153Z,6.03
2023-05-02T13:50:22.731Z,7.43
2023-05-02T13:52:49.599Z,6.78
2023-05-02T13:55:16.397Z,5.40
2023-05-02T13:57:43.521Z,6.43
2023-05-02T14:00:10.729Z,6.88
2023-05-02T14:02:39.272Z,7.18
2023-05-02T14:05:06.443Z,7.57
2023-05-02T14:07:33.085Z,7.10
2023-05-02T14:10:00.014Z,6.72
2023-05-02T14:12:26.995Z,6.50
2023-05-02T14:14:53.665Z,7.05
2023-05-02T14:17:20.276Z,7.90
2023-05-02T14:19:46.903Z,6.75
2023-05-02T14:22:13.563Z,8.07
2023-05-02T14:24:40.164Z,6.22
2023-05-02T14:27:07.707Z,6.97
2023-05-02T14:29:34.324Z,6.28
2023-05-02T14:32:01.105Z,5.53
2023-05-02T14:34:27.811Z,5.50
2023-05-02T14:36:54.457Z,6.95
2023-05-02T14:39:21.117Z,7.50
2023-05-02T14:41:48.173Z,7.03
2023-05-02T14:44:14.733Z,4.85
2023-05-02T14:46:42.039Z,4.72
2023-05-02T14:49:09.310Z,5.05
2023-05-02T14:51:39.419Z,4.80
2023-05-02T14:54:07.146Z,4.95
2023-05-02T14:56:33.853Z,4.32
2023-05-02T14:59:00.742Z,4.15
2023-05-02T15:01:27.495Z,6.40
2023-05-02T15:04:04.965Z,5.45
2023-05-02T15:06:33.845Z,5.43
2023-05-02T15:09:01.514Z,5.60
2023-05-02T15:11:28.057Z,4.50
2023-05-02T15:13:58.420Z,4.60
2023-05-02T15:16:26.999Z,5.18
2023-05-02T15:18:53.964Z,5.32
2023-05-02T15:21:20.925Z,6.00
2023-05-02T15:23:47.818Z,4.75
2023-05-02T15:26:14.571Z,5.07
2023-05-02T15:28:41.418Z,5.50
2023-05-02T15:31:08.149Z,4.22
2023-05-02T15:33:34.808Z,3.63
2023-05-02T15:36:01.451Z,3.38
2023-05-02T15:38:28.192Z,4.40
2023-05-02T15:40:58.728Z,4.05
2023-05-02T15:43:26.173Z,3.10
2023-05-02T15:45:54.740Z,3.58
2023-05-02T15:48:21.823Z,4.70
2023-05-02T15:50:49.026Z,3.45
2023-05-02T15:53:16.728Z,2.67
2023-05-02T15:55:45.713Z,2.17
2023-05-02T15:58:13.082Z,2.53
2023-05-02T16:00:39.686Z,3.67
2023-05-02T16:03:06.518Z,2.92
2023-05-02T16:05:33.243Z,3.60
2023-05-02T16:08:00.495Z,2.35
2023-05-02T16:10:27.431Z,2.70
2023-05-02T16:12:54.259Z,2.70
2023-05-02T16:15:21.740Z,4.45
2023-05-02T16:17:49.380Z,3.63
2023-05-02T16:20:16.863Z,4.65
2023-05-02T16:22:45.969Z,5.90
2023-05-02T16:25:13.710Z,3.75
2023-05-02T16:27:40.937Z,4.88
2023-05-02T16:30:08.175Z,5.65
2023-05-02T16:32:37.209Z,3.85
2023-05-02T16:35:07.043Z,4.50
2023-05-02T16:37:34.926Z,3.27
2023-05-02T16:40:02.398Z,3.22
2023-05-02T16:42:29.698Z,2.25
2023-05-02T16:44:57.362Z,3.08
2023-05-02T16:47:24.243Z,3.15
2023-05-02T16:49:55.520Z,3.33
2023-05-02T16:52:22.463Z,3.72
2023-05-02T16:54:49.396Z,4.18
2023-05-02T16:57:20.856Z,3.17
2023-05-02T16:59:49.168Z,3.22
2023-05-02T17:02:16.267Z,3.22
2023-05-02T17:04:43.316Z,4.35
2023-05-02T17:07:12.199Z,2.80
2023-05-02T17:09:42.177Z,5.28
2023-05-02T17:12:12.939Z,5.57
2023-05-02T17:14:42.296Z,5.60
2023-05-02T17:17:09.746Z,4.57
2023-05-02T17:19:37.015Z,3.90
2023-05-02T17:22:05.162Z,2.75
2023-05-02T17:24:33.103Z,4.28
2023-05-02T17:27:00.881Z,3.00
2023-05-02T17:29:27.580Z,3.30
2023-05-02T17:31:56.791Z,3.45
2023-05-02T17:34:26.712Z,2.50
2023-05-02T17:36:53.259Z,3.55
2023-05-02T17:39:19.860Z,4.78
2023-05-02T17:41:46.447Z,5.57
2023-05-02T17:44:13.087Z,4.45
2023-05-02T17:46:39.704Z,2.08
2023-05-02T17:49:06.536Z,4.38
2023-05-02T17:51:33.697Z,3.58
2023-05-02T17:54:00.954Z,3.35
2023-05-02T17:56:28.397Z,2.88
2023-05-02T17:58:55.383Z,2.33
2023-05-02T18:01:22.090Z,4.15
2023-05-02T18:03:49.955Z,2.25
2023-05-02T18:06:18.139Z,3.22
2023-05-02T18:08:45.888Z,5.65
2023-05-02T18:11:20.122Z,3.72
2023-05-02T18:13:46.876Z,4.20
2023-05-02T18:16:14.125Z,3.20
2023-05-02T18:18:41.487Z,2.33
2023-05-02T18:21:09.546Z,1.63
2023-05-02T18:23:36.256Z,2.55
2023-05-02T18:26:04.093Z,4.63
2023-05-02T18:28:30.820Z,3.03
2023-05-02T18:30:57.439Z,2.67
2023-05-02T18:33:24.265Z,2.72
2023-05-02T18:35:51.083Z,3.35
2023-05-02T18:38:18.183Z,3.67
2023-05-02T18:40:45.562Z,2.90
2023-05-02T18:43:12.172Z,1.88
2023-05-02T18:45:39.023Z,1.88
2023-05-02T18:48:06.016Z,2.28
2023-05-02T18:50:32.749Z,3.40
2023-05-02T18:52:59.353Z,5.38
2023-05-02T18:55:25.902Z,3.35
2023-05-02T18:57:52.526Z,3.90
2023-05-02T19:00:20.468Z,2.72
2023-05-02T19:02:47.740Z,2.85
2023-05-02T19:05:15.027Z,2.72
2023-05-02T19:07:42.285Z,2.67
2023-05-02T19:10:11.004Z,2.47
2023-05-02T19:12:38.261Z,3.85
2023-05-02T19:15:06.588Z,2.60
2023-05-02T19:17:34.118Z,2.42
2023-05-02T19:20:01.262Z,1.25
2023-05-02T19:22:27.904Z,3.88
2023-05-02T19:24:55.167Z,3.78
2023-05-02T19:27:21.815Z,3.20
2023-05-02T19:29:48.445Z,1.42
2023-05-02T19:32:15.760Z,1.88
2023-05-02T19:34:42.434Z,3.65
2023-05-02T19:37:09.499Z,1.33
2023-05-02T19:39:36.130Z,5.20
2023-05-02T19:42:03.142Z,2.72
2023-05-02T19:44:30.199Z,3.92
2023-05-02T19:46:56.865Z,1.88
2023-05-02T19:49:23.522Z,2.30
2023-05-02T19:51:50.407Z,2.50
2023-05-02T19:54:17.054Z,1.42
2023-05-02T19:56:43.713Z,5.25
2023-05-02T19:59:10.291Z,3.97
2023-05-02T20:01:37.058Z,2.97
2023-05-02T20:04:03.848Z,3.65
2023-05-02T20:06:31.925Z,3.65
2023-05-02T20:08:58.664Z,2.65
2023-05-02T20:11:25.923Z,5.25
2023-05-02T20:13:52.581Z,4.25
2023-05-02T20:16:19.357Z,4.85
2023-05-02T20:18:46.328Z,3.25
2023-05-02T20:21:12.884Z,3.75
2023-05-02T20:23:43.537Z,5.63
2023-05-02T20:26:10.736Z,3.78
2023-05-02T20:28:37.868Z,4.55
2023-05-02T20:31:04.897Z,3.25
2023-05-02T20:33:43.805Z,4.30
2023-05-02T20:38:42.660Z,3.80
2023-05-02T20:41:12.291Z,5.82
2023-05-02T20:43:39.735Z,4.75
2023-05-02T20:46:11.186Z,4.03
2023-05-02T20:48:38.088Z,8.88
2023-05-02T20:51:04.833Z,6.55
2023-05-02T20:53:31.608Z,3.67
2023-05-02T20:55:58.256Z,4.78
2023-05-02T20:58:24.903Z,3.63
2023-05-02T21:00:52.637Z,7.20
2023-05-02T21:03:19.939Z,2.30
2023-05-02T21:05:52.422Z,4.47
2023-05-02T21:08:19.375Z,8.43
2023-05-02T21:10:46.236Z,6.38
2023-05-02T21:13:13.150Z,4.43
2023-05-02T21:15:40.351Z,7.43
2023-05-02T21:18:07.435Z,3.70
2023-05-02T21:20:34.565Z,6.07
2023-05-02T21:23:01.196Z,4.43
2023-05-02T21:25:27.805Z,4.70
2023-05-02T21:27:54.385Z,3.92
2023-05-02T21:30:21.112Z,3.40
2023-05-02T21:32:47.791Z,4.78
2023-05-02T21:35:14.452Z,3.72
2023-05-02T21:37:41.189Z,5.38
2023-05-02T21:40:08.486Z,3.75
2023-05-02T21:42:35.174Z,6.75
2023-05-02T21:45:01.860Z,4.80
2023-05-02T21:47:28.538Z,5.15
2023-05-02T21:49:57.052Z,4.68
2023-05-02T21:52:23.647Z,4.53
2023-05-02T21:54:52.385Z,6.90
2023-05-02T21:57:19.321Z,4.15
2023-05-02T21:59:46.312Z,3.97
2023-05-02T22:02:12.910Z,7.53
2023-05-02T22:04:40.428Z,4.72
2023-05-02T22:07:07.422Z,5.13
2023-05-02T22:09:34.050Z,5.85
2023-05-02T22:12:01.068Z,7.63
2023-05-02T22:14:41.102Z,3.40
2023-05-02T22:17:11.562Z,5.57
2023-05-02T22:19:39.323Z,5.43
2023-05-02T22:22:06.629Z,6.90
2023-05-02T22:24:33.761Z,5.85
2023-05-02T22:27:00.522Z,5.72
2023-05-02T22:29:27.084Z,4.00
2023-05-02T22:31:53.688Z,4.90
2023-05-02T22:34:20.358Z,5.55
2023-05-02T22:36:47.052Z,3.40
2023-05-02T22:39:15.647Z,4.95
2023-05-02T22:41:43.069Z,6.97
2023-05-02T22:44:10.945Z,7.60
2023-05-02T22:46:38.413Z,4.88
2023-05-02T22:49:10.385Z,4.65
2023-05-02T22:51:41.904Z,3.95
2023-05-02T22:54:08.724Z,6.45
2023-05-02T22:56:35.492Z,6.93
2023-05-02T22:59:02.149Z,4.70
2023-05-02T23:01:28.999Z,6.22
2023-05-02T23:03:55.854Z,4.80
2023-05-02T23:06:22.584Z,5.60
2023-05-02T23:08:49.285Z,5.22
2023-05-02T23:11:15.954Z,5.05
2023-05-02T23:13:42.545Z,4.85
2023-05-02T23:16:09.186Z,6.05
2023-05-02T23:18:35.967Z,4.75
2023-05-02T23:21:03.975Z,3.85
2023-05-02T23:23:30.973Z,5.97
2023-05-02T23:25:57.884Z,6.53
2023-05-02T23:28:24.526Z,3.70
2023-05-02T23:30:51.408Z,6.28
2023-05-02T23:33:18.111Z,4.53
2023-05-02T23:35:44.792Z,5.03
2023-05-02T23:38:11.422Z,5.10
2023-05-02T23:40:38.009Z,3.15
2023-05-02T23:43:05.121Z,4.68
2023-05-02T23:45:31.724Z,3.40
2023-05-02T23:47:58.356Z,6.20
2023-05-02T23:50:24.910Z,7.55
2023-05-02T23:52:51.548Z,4.90
2023-05-02T23:55:18.205Z,5.95
2023-05-02T23:57:44.774Z,3.78
